createdAt,value
2023-05-24T00:01:25.175Z,12.99
2023-05-24T00:03:51.916Z,12.97
2023-05-24T00:06:19.921Z,12.93
2023-05-24T00:08:46.649Z,12.96
2023-05-24T00:11:13.049Z,12.93
2023-05-24T00:13:39.403Z,12.92
2023-05-24T00:16:05.919Z,12.83
2023-05-24T00:18:32.329Z,12.78
2023-05-24T00:20:58.768Z,12.73
2023-05-24T00:23:26.210Z,12.72
2023-05-24T00:25:52.778Z,12.69
2023-05-24T00:28:19.105Z,12.66
2023-05-24T00:30:45.621Z,12.63
2023-05-24T00:33:11.990Z,12.63
2023-05-24T00:35:38.405Z,12.62
2023-05-24T00:38:04.726Z,12.68
2023-05-24T00:40:31.948Z,12.69
2023-05-24T00:42:58.319Z,12.69
2023-05-24T00:45:24.692Z,12.67
2023-05-24T00:47:51.103Z,12.62
2023-05-24T00:50:18.704Z,12.68
2023-05-24T00:52:47.370Z,12.63
2023-05-24T00:55:13.944Z,12.66
2023-05-24T00:57:41.172Z,12.67
2023-05-24T01:00:10.500Z,12.66
2023-05-24T01:02:37.890Z,12.75
2023-05-24T01:05:05.463Z,12.69
2023-05-24T01:07:51.752Z,12.65
2023-05-24T01:10:37.610Z,12.69
2023-05-24T01:13:13.530Z,12.68
2023-05-24T01:15:48.766Z,12.67
2023-05-24T01:18:21.304Z,12.71
2023-05-24T01:20:51.602Z,12.65
2023-05-24T01:23:31.148Z,12.65
2023-05-24T01:26:08.111Z,12.66
2023-05-24T01:28:35.694Z,12.70
2023-05-24T01:31:03.674Z,12.69
2023-05-24T01:33:30.159Z,12.72
2023-05-24T01:35:56.575Z,12.75
2023-05-24T01:38:22.904Z,12.80
2023-05-24T01:40:57.359Z,12.75
2023-05-24T01:43:31.171Z,12.68
2023-05-24T01:46:06.293Z,12.66
2023-05-24T01:48:37.979Z,12.70
2023-05-24T01:51:06.944Z,12.74
2023-05-24T01:53:35.153Z,12.69
2023-05-24T01:56:04.570Z,12.71
2023-05-24T01:58:33.138Z,12.69
2023-05-24T02:01:01.309Z,12.75
2023-05-24T02:03:27.814Z,12.78
2023-05-24T02:05:54.194Z,12.84
2023-05-24T02:08:21.405Z,12.84
2023-05-24T02:10:47.754Z,12.78
2023-05-24T02:13:15.550Z,12.70
2023-05-24T02:15:42.508Z,12.74
2023-05-24T02:18:10.595Z,12.71
2023-05-24T02:20:37.286Z,12.69
2023-05-24T02:23:04.139Z,12.65
2023-05-24T02:25:31.313Z,12.62
2023-05-24T02:27:57.809Z,12.60
2023-05-24T02:30:24.145Z,12.60
2023-05-24T02:32:50.589Z,12.57
2023-05-24T02:35:17.725Z,12.54
2023-05-24T02:37:44.169Z,12.54
2023-05-24T02:40:11.618Z,12.49
2023-05-24T02:42:38.058Z,12.49
2023-05-24T02:45:05.451Z,12.47
2023-05-24T02:47:31.779Z,12.49
2023-05-24T02:49:58.178Z,12.51
2023-05-24T02:52:26.014Z,12.45
2023-05-24T02:54:52.386Z,12.46
2023-05-24T02:57:18.755Z,12.53
2023-05-24T02:59:45.216Z,12.41
2023-05-24T03:02:12.989Z,12.47
2023-05-24T03:04:39.394Z,12.37
2023-05-24T03:07:06.079Z,12.35
2023-05-24T03:09:33.090Z,12.31
2023-05-24T03:11:59.429Z,12.34
2023-05-24T03:14:25.801Z,12.35
2023-05-24T03:16:52.229Z,12.39
2023-05-24T03:19:18.584Z,12.38
2023-05-24T03:21:44.980Z,12.36
2023-05-24T03:24:12.390Z,12.36
2023-05-24T03:26:39.550Z,12.38
2023-05-24T03:29:06.420Z,12.38
2023-05-24T03:31:32.817Z,12.34
2023-05-24T03:33:59.260Z,12.30
2023-05-24T03:36:27.238Z,12.35
2023-05-24T03:38:54.240Z,12.30
2023-05-24T03:41:20.597Z,12.27
2023-05-24T03:43:47.627Z,12.26
2023-05-24T03:46:13.960Z,12.24
2023-05-24T03:48:40.355Z,12.23
2023-05-24T03:51:08.476Z,12.28
2023-05-24T03:53:35.053Z,12.23
2023-05-24T03:56:01.422Z,12.16
2023-05-24T03:58:29.023Z,12.15
2023-05-24T04:00:56.070Z,12.13
2023-05-24T04:03:22.510Z,12.12
2023-05-24T04:05:49.081Z,12.13
2023-05-24T04:08:15.708Z,12.18
2023-05-24T04:10:42.342Z,12.21
2023-05-24T04:13:08.831Z,12.26
2023-05-24T04:15:35.353Z,12.29
2023-05-24T04:18:02.526Z,12.32
2023-05-24T04:20:29.237Z,12.42
2023-05-24T04:22:55.736Z,12.38
2023-05-24T04:25:22.392Z,12.40
2023-05-24T04:27:49.580Z,12.48
2023-05-24T04:30:16.438Z,12.58
2023-05-24T04:32:43.961Z,12.58
2023-05-24T04:35:11.287Z,12.62
2023-05-24T04:37:37.609Z,12.66
2023-05-24T04:40:05.111Z,12.69
2023-05-24T04:42:31.418Z,12.64
2023-05-24T04:44:57.980Z,12.59
2023-05-24T04:47:24.445Z,12.64
2023-05-24T04:49:51.286Z,12.70
2023-05-24T04:52:18.388Z,12.79
2023-05-24T04:54:44.827Z,12.80
2023-05-24T04:57:11.346Z,12.75
2023-05-24T04:59:37.668Z,12.81
2023-05-24T05:02:04.727Z,12.79
2023-05-24T05:04:31.118Z,12.82
2023-05-24T05:06:57.540Z,12.78
2023-05-24T05:09:24.517Z,12.63
2023-05-24T05:11:50.983Z,12.52
2023-05-24T05:14:17.475Z,12.40
2023-05-24T05:16:44.986Z,12.25
2023-05-24T05:19:12.762Z,12.25
2023-05-24T05:21:39.239Z,12.31
2023-05-24T05:24:05.728Z,12.28
2023-05-24T05:26:32.769Z,12.36
2023-05-24T05:28:59.183Z,12.53
2023-05-24T05:31:25.636Z,12.68
2023-05-24T05:33:52.330Z,12.87
2023-05-24T05:36:18.940Z,13.02
2023-05-24T05:38:45.801Z,13.07
2023-05-24T05:41:12.205Z,13.28
2023-05-24T05:43:39.285Z,13.48
2023-05-24T05:46:06.119Z,13.52
2023-05-24T05:48:32.542Z,13.68
2023-05-24T05:50:58.915Z,13.82
2023-05-24T05:53:25.248Z,13.78
2023-05-24T05:55:51.674Z,13.90
2023-05-24T05:58:18.007Z,13.88
2023-05-24T06:00:45.063Z,13.94
2023-05-24T06:03:11.533Z,13.96
2023-05-24T06:05:38.247Z,13.88
2023-05-24T06:08:04.625Z,13.68
2023-05-24T06:10:30.980Z,13.71
2023-05-24T06:12:57.296Z,13.61
2023-05-24T06:15:23.727Z,13.69
2023-05-24T06:17:52.014Z,13.77
2023-05-24T06:20:18.716Z,13.94
2023-05-24T06:22:45.564Z,14.08
2023-05-24T06:25:14.788Z,14.06
2023-05-24T06:27:41.214Z,14.17
2023-05-24T06:30:08.727Z,14.32
2023-05-24T06:32:35.447Z,14.43
2023-05-24T06:35:03.336Z,14.72
2023-05-24T06:37:33.462Z,14.66
2023-05-24T06:39:59.793Z,14.66
2023-05-24T06:42:26.249Z,14.66
2023-05-24T06:44:52.632Z,14.93
2023-05-24T06:47:19.103Z,14.98
2023-05-24T06:49:47.298Z,15.09
2023-05-24T06:52:14.326Z,15.22
2023-05-24T06:54:40.847Z,15.33
2023-05-24T06:57:08.097Z,15.56
2023-05-24T06:59:34.438Z,15.56
2023-05-24T07:02:03.428Z,15.78
2023-05-24T07:04:30.478Z,16.01
2023-05-24T07:06:57.174Z,16.26
2023-05-24T07:09:24.210Z,16.21
2023-05-24T07:11:50.647Z,16.56
2023-05-24T07:14:17.026Z,16.70
2023-05-24T07:16:43.403Z,16.37
2023-05-24T07:19:09.815Z,16.52
2023-05-24T07:21:36.771Z,16.33
2023-05-24T07:24:03.897Z,16.39
2023-05-24T07:26:30.949Z,16.59
2023-05-24T07:28:57.307Z,16.57
2023-05-24T07:31:23.702Z,16.21
2023-05-24T07:33:50.126Z,16.10
2023-05-24T07:36:16.558Z,15.74
2023-05-24T07:38:42.906Z,15.89
2023-05-24T07:41:09.334Z,16.03
2023-05-24T07:43:36.889Z,16.12
2023-05-24T07:46:03.529Z,16.36
2023-05-24T07:48:29.883Z,16.31
2023-05-24T07:50:56.215Z,16.22
2023-05-24T07:53:22.708Z,16.13
2023-05-24T07:55:50.098Z,16.21
2023-05-24T07:58:16.515Z,16.45
2023-05-24T08:00:43.738Z,16.35
2023-05-24T08:03:12.796Z,16.34
2023-05-24T08:05:39.451Z,16.43
2023-05-24T08:08:05.842Z,16.36
2023-05-24T08:10:32.183Z,16.46
2023-05-24T08:12:58.563Z,16.27
2023-05-24T08:15:24.933Z,16.68
2023-05-24T08:17:51.939Z,16.84
2023-05-24T08:20:18.477Z,17.33
2023-05-24T08:22:44.909Z,17.61
2023-05-24T08:25:11.499Z,17.24
2023-05-24T08:27:37.982Z,16.84
2023-05-24T08:30:05.449Z,16.88
2023-05-24T08:32:31.929Z,16.89
2023-05-24T08:35:11.086Z,17.01
2023-05-24T08:37:45.391Z,16.94
2023-05-24T08:40:12.344Z,16.51
2023-05-24T08:42:38.909Z,16.53
2023-05-24T08:45:10.516Z,16.79
2023-05-24T08:47:38.014Z,16.33
2023-05-24T08:50:07.566Z,16.58
2023-05-24T08:52:35.324Z,16.25
2023-05-24T08:55:02.252Z,15.99
2023-05-24T08:57:30.113Z,15.58
2023-05-24T08:59:56.538Z,15.24
2023-05-24T09:02:23.585Z,15.29
2023-05-24T09:04:52.684Z,15.65
2023-05-24T09:07:22.776Z,15.84
2023-05-24T09:09:56.738Z,15.80
2023-05-24T09:12:36.698Z,15.63
2023-05-24T09:15:06.117Z,15.81
2023-05-24T09:17:34.039Z,15.67
2023-05-24T09:20:00.824Z,15.58
2023-05-24T09:22:29.881Z,15.18
2023-05-24T09:24:59.029Z,15.21
2023-05-24T09:27:25.742Z,14.93
2023-05-24T09:29:52.680Z,14.89
2023-05-24T09:32:23.332Z,15.05
2023-05-24T09:34:52.605Z,15.33
2023-05-24T09:37:24.457Z,15.55
2023-05-24T09:39:54.720Z,15.70
2023-05-24T09:42:23.766Z,15.69
2023-05-24T09:45:00.009Z,15.70
2023-05-24T09:47:28.948Z,15.85
2023-05-24T09:49:55.297Z,15.76
2023-05-24T09:52:22.116Z,15.61
2023-05-24T09:54:49.281Z,15.79
2023-05-24T09:57:16.483Z,16.08
2023-05-24T09:59:43.648Z,16.01
2023-05-24T10:02:11.435Z,15.82
2023-05-24T10:04:38.061Z,15.66
2023-05-24T10:07:05.635Z,15.57
2023-05-24T10:09:33.434Z,15.44
2023-05-24T10:12:03.695Z,15.32
2023-05-24T10:14:33.358Z,15.32
2023-05-24T10:16:59.854Z,15.03
2023-05-24T10:19:26.525Z,14.72
2023-05-24T10:21:53.437Z,14.61
2023-05-24T10:24:25.616Z,14.41
2023-05-24T10:26:53.863Z,14.02
2023-05-24T10:29:33.321Z,14.01
2023-05-24T10:32:00.880Z,13.82
2023-05-24T10:34:30.032Z,13.59
2023-05-24T10:36:58.167Z,13.33
2023-05-24T10:39:26.016Z,13.25
2023-05-24T10:41:56.275Z,13.30
2023-05-24T10:44:32.712Z,13.24
2023-05-24T10:47:07.409Z,13.33
2023-05-24T10:49:33.834Z,13.46
2023-05-24T10:52:07.832Z,13.50
2023-05-24T10:54:35.010Z,13.49
2023-05-24T10:57:03.716Z,13.59
2023-05-24T10:59:44.673Z,13.62
2023-05-24T11:02:14.163Z,13.69
2023-05-24T11:04:42.885Z,13.92
2023-05-24T11:07:10.731Z,14.07
2023-05-24T11:09:45.141Z,14.14
2023-05-24T11:12:15.323Z,14.22
2023-05-24T11:14:47.888Z,14.15
2023-05-24T11:17:15.643Z,14.04
2023-05-24T11:19:47.294Z,13.82
2023-05-24T11:22:14.482Z,13.82
2023-05-24T11:24:41.453Z,13.80
2023-05-24T11:27:10.530Z,13.80
2023-05-24T11:29:40.749Z,13.77
2023-05-24T11:32:07.415Z,13.89
2023-05-24T11:34:34.986Z,14.10
2023-05-24T11:37:04.751Z,14.17
2023-05-24T11:39:31.803Z,14.03
2023-05-24T11:41:58.327Z,14.31
2023-05-24T11:44:25.293Z,14.54
2023-05-24T11:46:57.350Z,14.71
2023-05-24T11:49:23.659Z,14.84
2023-05-24T11:51:53.086Z,14.89
2023-05-24T11:54:20.585Z,15.05
2023-05-24T11:56:47.381Z,15.48
2023-05-24T11:59:15.669Z,15.91
2023-05-24T12:01:42.485Z,15.90
2023-05-24T12:04:09.353Z,15.78
2023-05-24T12:06:37.682Z,15.89
2023-05-24T12:09:08.419Z,15.74
2023-05-24T12:11:37.697Z,15.88
2023-05-24T12:14:04.791Z,15.97
2023-05-24T12:16:32.504Z,15.63
2023-05-24T12:19:05.295Z,15.57
2023-05-24T12:21:35.824Z,15.41
2023-05-24T12:24:10.148Z,15.16
2023-05-24T12:26:37.394Z,14.96
2023-05-24T12:29:04.175Z,14.91
2023-05-24T12:31:31.075Z,14.81
2023-05-24T12:33:57.516Z,14.84
2023-05-24T12:36:23.875Z,14.89
2023-05-24T12:38:50.279Z,14.95
2023-05-24T12:41:19.378Z,14.80
2023-05-24T12:43:45.698Z,14.49
2023-05-24T12:46:12.499Z,14.37
2023-05-24T12:48:38.849Z,14.39
2023-05-24T12:51:05.383Z,14.42
2023-05-24T12:53:31.746Z,14.57
2023-05-24T12:55:59.797Z,14.52
2023-05-24T12:58:26.838Z,14.59
2023-05-24T13:00:53.635Z,14.86
2023-05-24T13:03:20.099Z,15.33
2023-05-24T13:05:46.579Z,15.87
2023-05-24T13:08:13.856Z,16.82
2023-05-24T13:10:40.497Z,17.25
2023-05-24T13:13:07.120Z,17.56
2023-05-24T13:15:34.207Z,17.65
2023-05-24T13:18:00.641Z,17.73
2023-05-24T13:20:27.123Z,17.42
2023-05-24T13:22:53.520Z,17.17
2023-05-24T13:25:21.817Z,17.02
2023-05-24T13:27:48.332Z,16.63
2023-05-24T13:30:16.438Z,16.36
2023-05-24T13:32:43.519Z,16.18
2023-05-24T13:35:09.885Z,16.07
2023-05-24T13:37:36.274Z,16.25
2023-05-24T13:40:03.479Z,16.14
2023-05-24T13:42:30.151Z,16.05
2023-05-24T13:44:58.407Z,15.88
2023-05-24T13:47:38.530Z,15.91
2023-05-24T13:50:07.788Z,15.79
2023-05-24T13:52:34.272Z,15.98
2023-05-24T13:55:04.070Z,16.04
2023-05-24T13:57:46.920Z,15.88
2023-05-24T14:00:17.421Z,15.76
2023-05-24T14:02:43.857Z,15.61
2023-05-24T14:05:25.870Z,15.35
2023-05-24T14:07:54.308Z,15.14
2023-05-24T14:10:21.736Z,15.04
2023-05-24T14:12:59.676Z,15.08
2023-05-24T14:15:30.368Z,15.03
2023-05-24T14:17:57.341Z,14.93
2023-05-24T14:20:24.438Z,15.00
2023-05-24T14:22:50.924Z,15.22
2023-05-24T14:25:17.315Z,15.22
2023-05-24T14:27:44.854Z,15.22
2023-05-24T14:30:12.092Z,15.17
2023-05-24T14:32:38.436Z,15.18
2023-05-24T14:35:05.562Z,15.12
2023-05-24T14:37:32.575Z,15.16
2023-05-24T14:39:58.949Z,15.22
2023-05-24T14:42:25.356Z,15.39
2023-05-24T14:44:51.728Z,15.43
2023-05-24T14:47:18.089Z,15.61
2023-05-24T14:49:44.437Z,15.79
2023-05-24T14:52:10.774Z,15.61
2023-05-24T14:54:37.806Z,15.56
2023-05-24T14:57:06.595Z,15.28
2023-05-24T14:59:32.971Z,15.49
2023-05-24T15:01:59.350Z,15.69
2023-05-24T15:04:26.362Z,15.84
2023-05-24T15:06:52.715Z,15.94
2023-05-24T15:09:19.154Z,16.19
2023-05-24T15:11:46.164Z,16.38
2023-05-24T15:14:12.584Z,16.45
2023-05-24T15:16:38.974Z,16.62
2023-05-24T15:19:05.416Z,16.62
2023-05-24T15:21:31.785Z,16.49
2023-05-24T15:24:00.176Z,16.91
2023-05-24T15:26:26.874Z,17.26
2023-05-24T15:28:54.238Z,17.48
2023-05-24T15:31:20.616Z,17.56
2023-05-24T15:33:47.012Z,17.97
2023-05-24T15:36:16.081Z,17.98
2023-05-24T15:38:42.748Z,17.93
2023-05-24T15:41:09.131Z,18.06
2023-05-24T15:43:35.484Z,18.08
2023-05-24T15:46:02.523Z,18.35
2023-05-24T15:48:28.891Z,18.67
2023-05-24T15:51:42.931Z,18.54
2023-05-24T15:53:41.604Z,18.54
2023-05-24T15:56:08.909Z,18.21
2023-05-24T15:58:35.438Z,18.15
2023-05-24T16:01:02.473Z,18.04
2023-05-24T16:03:28.955Z,18.16
2023-05-24T16:05:55.395Z,18.21
2023-05-24T16:08:26.840Z,17.78
2023-05-24T16:10:53.329Z,17.65
2023-05-24T16:13:20.766Z,17.46
2023-05-24T16:15:50.684Z,17.65
2023-05-24T16:18:18.298Z,17.84
2023-05-24T16:20:45.798Z,17.74
2023-05-24T16:23:12.567Z,17.82
2023-05-24T16:25:38.917Z,17.89
2023-05-24T16:28:05.282Z,18.02
2023-05-24T16:30:31.750Z,18.22
2023-05-24T16:32:58.186Z,18.30
2023-05-24T16:35:25.291Z,18.63
2023-05-24T16:37:51.644Z,18.73
2023-05-24T16:40:18.054Z,18.90
2023-05-24T16:42:44.402Z,18.67
2023-05-24T16:45:11.155Z,18.17
2023-05-24T16:47:42.026Z,17.86
2023-05-24T16:50:14.039Z,17.74
2023-05-24T16:52:41.216Z,17.52
2023-05-24T16:55:08.529Z,17.48
2023-05-24T16:57:35.284Z,17.39
2023-05-24T17:00:03.235Z,17.38
2023-05-24T17:02:29.679Z,17.19
2023-05-24T17:04:56.094Z,16.88
2023-05-24T17:07:22.533Z,16.69
2023-05-24T17:09:50.695Z,16.45
2023-05-24T17:12:17.441Z,16.07
2023-05-24T17:14:43.901Z,15.92
2023-05-24T17:17:11.795Z,15.76
2023-05-24T17:19:38.394Z,15.39
2023-05-24T17:22:05.812Z,15.27
2023-05-24T17:24:32.197Z,15.07
2023-05-24T17:27:01.220Z,14.95
2023-05-24T17:29:29.223Z,14.83
2023-05-24T17:31:55.610Z,14.73
2023-05-24T17:34:21.969Z,14.56
2023-05-24T17:36:48.471Z,14.43
2023-05-24T17:39:16.613Z,14.38
2023-05-24T17:41:43.684Z,14.24
2023-05-24T17:44:10.765Z,14.26
2023-05-24T17:46:39.726Z,14.18
2023-05-24T17:49:07.754Z,14.08
2023-05-24T17:51:34.594Z,14.02
2023-05-24T17:54:00.893Z,13.97
2023-05-24T17:56:28.349Z,13.89
2023-05-24T17:58:54.897Z,13.86
2023-05-24T18:01:22.322Z,13.83
2023-05-24T18:03:48.716Z,13.78
2023-05-24T18:06:15.195Z,13.80
2023-05-24T18:08:42.574Z,13.83
2023-05-24T18:11:09.584Z,13.86
2023-05-24T18:13:37.157Z,13.79
2023-05-24T18:16:03.561Z,13.81
2023-05-24T18:18:30.603Z,13.70
2023-05-24T18:20:56.952Z,13.56
2023-05-24T18:23:23.338Z,13.47
2023-05-24T18:25:49.705Z,13.41
2023-05-24T18:28:16.060Z,13.31
2023-05-24T18:30:42.584Z,13.31
2023-05-24T18:33:09.153Z,13.29
2023-05-24T18:35:36.262Z,13.26
2023-05-24T18:38:06.476Z,13.20
2023-05-24T18:40:32.841Z,13.22
2023-05-24T18:42:59.237Z,13.20
2023-05-24T18:45:25.630Z,13.24
2023-05-24T18:47:53.399Z,13.13
2023-05-24T18:50:23.119Z,13.06
2023-05-24T18:52:50.680Z,12.97
2023-05-24T18:55:17.053Z,12.92
2023-05-24T18:57:43.359Z,12.83
2023-05-24T19:00:11.158Z,12.79
2023-05-24T19:02:39.031Z,12.76
2023-05-24T19:05:06.367Z,12.71
2023-05-24T19:07:33.315Z,12.67
2023-05-24T19:10:00.424Z,12.65
2023-05-24T19:12:26.820Z,12.70
2023-05-24T19:14:53.199Z,12.71
2023-05-24T19:17:19.701Z,12.72
2023-05-24T19:19:47.299Z,12.74
2023-05-24T19:22:13.661Z,12.75
2023-05-24T19:24:40.067Z,12.75
2023-05-24T19:27:07.176Z,12.76
2023-05-24T19:29:34.057Z,12.74
2023-05-24T19:32:00.516Z,12.75
2023-05-24T19:34:27.881Z,12.72
2023-05-24T19:36:54.287Z,12.68
2023-05-24T19:39:21.095Z,12.60
2023-05-24T19:41:47.571Z,12.58
2023-05-24T19:44:14.598Z,12.55
2023-05-24T19:46:40.958Z,12.47
2023-05-24T19:49:08.704Z,12.43
2023-05-24T19:51:36.738Z,12.48
2023-05-24T19:54:03.213Z,12.42
2023-05-24T19:56:29.734Z,12.38
2023-05-24T19:58:56.089Z,12.39
2023-05-24T20:01:23.100Z,12.32
2023-05-24T20:03:49.596Z,12.32
2023-05-24T20:06:16.748Z,12.29
2023-05-24T20:08:44.084Z,12.27
2023-05-24T20:11:11.305Z,12.32
2023-05-24T20:13:37.823Z,12.29
2023-05-24T20:16:04.362Z,12.32
2023-05-24T20:18:34.315Z,12.29
2023-05-24T20:21:00.851Z,12.26
2023-05-24T20:23:27.269Z,12.29
2023-05-24T20:25:54.674Z,12.16
2023-05-24T20:28:30.080Z,12.11
2023-05-24T20:30:57.457Z,12.02
2023-05-24T20:33:23.827Z,11.99
2023-05-24T20:35:52.265Z,12.01
2023-05-24T20:38:18.715Z,11.89
2023-05-24T20:40:47.974Z,11.84
2023-05-24T20:43:14.412Z,11.88
2023-05-24T20:45:40.969Z,11.74
2023-05-24T20:48:07.477Z,11.72
2023-05-24T20:50:33.956Z,11.67
2023-05-24T20:53:01.017Z,11.62
2023-05-24T20:55:27.409Z,11.59
2023-05-24T20:57:53.884Z,11.54
2023-05-24T21:00:20.481Z,11.55
2023-05-24T21:02:46.976Z,11.55
2023-05-24T21:05:13.591Z,11.53
2023-05-24T21:07:40.086Z,11.53
2023-05-24T21:10:08.682Z,11.51
2023-05-24T21:12:35.064Z,11.52
2023-05-24T21:15:01.630Z,11.45
2023-05-24T21:17:28.042Z,11.47
2023-05-24T21:19:54.481Z,11.44
2023-05-24T21:22:20.901Z,11.57
2023-05-24T21:24:47.281Z,11.48
2023-05-24T21:27:14.344Z,11.53
2023-05-24T21:29:41.105Z,11.61
2023-05-24T21:32:07.509Z,11.60
2023-05-24T21:34:35.026Z,11.55
2023-05-24T21:37:01.396Z,11.57
2023-05-24T21:39:27.732Z,11.56
2023-05-24T21:41:54.082Z,11.56
2023-05-24T21:44:21.112Z,11.50
2023-05-24T21:46:47.574Z,11.52
2023-05-24T21:49:14.461Z,11.50
2023-05-24T21:51:40.832Z,11.42
2023-05-24T21:54:07.263Z,11.44
2023-05-24T21:56:33.663Z,11.42
2023-05-24T21:59:00.110Z,11.37
2023-05-24T22:01:28.226Z,11.40
2023-05-24T22:03:54.888Z,11.41
2023-05-24T22:06:22.963Z,11.41
2023-05-24T22:08:50.296Z,11.37
2023-05-24T22:11:17.118Z,11.45
2023-05-24T22:13:43.478Z,11.37
2023-05-24T22:16:10.035Z,11.36
2023-05-24T22:18:37.116Z,11.39
2023-05-24T22:21:03.711Z,11.37
2023-05-24T22:23:30.382Z,11.36
2023-05-24T22:25:56.737Z,11.43
2023-05-24T22:28:24.126Z,11.39
2023-05-24T22:30:51.540Z,11.41
2023-05-24T22:33:17.939Z,11.40
2023-05-24T22:35:45.164Z,11.37
2023-05-24T22:38:12.206Z,11.38
2023-05-24T22:40:41.310Z,11.42
2023-05-24T22:43:07.683Z,11.33
2023-05-24T22:45:34.075Z,11.31
2023-05-24T22:48:00.481Z,11.37
2023-05-24T22:50:26.909Z,11.34
2023-05-24T22:57:48.310Z,11.21
2023-05-24T23:00:15.666Z,11.23
2023-05-24T23:02:42.058Z,11.18
2023-05-24T23:05:10.414Z,11.15
2023-05-24T23:07:37.322Z,11.13
2023-05-24T23:10:04.095Z,11.08
2023-05-24T23:12:30.448Z,11.05
2023-05-24T23:14:57.643Z,11.07
2023-05-24T23:17:24.023Z,11.02
2023-05-24T23:19:50.574Z,11.01
2023-05-24T23:22:17.872Z,11.06
2023-05-24T23:24:46.783Z,11.09
2023-05-24T23:27:13.227Z,11.09
2023-05-24T23:29:40.054Z,11.08
2023-05-24T23:32:08.179Z,11.09
2023-05-24T23:34:34.827Z,11.03
2023-05-24T23:37:01.322Z,11.00
2023-05-24T23:39:27.856Z,11.04
2023-05-24T23:41:54.229Z,11.00
2023-05-24T23:44:22.879Z,11.01
2023-05-24T23:46:49.366Z,10.97
2023-05-24T23:49:16.397Z,11.03
2023-05-24T23:51:42.728Z,10.96
2023-05-24T23:54:09.152Z,10.99
2023-05-24T23:56:36.145Z,11.02
2023-05-24T23:59:02.464Z,11.04
